createdAt,value
2017-12-22T00:00:40.000Z,23.91
2017-12-22T00:10:41.000Z,23.86
2017-12-22T00:20:41.000Z,23.77
2017-12-22T00:30:41.000Z,23.83
2017-12-22T00:40:41.000Z,23.74
2017-12-22T00:50:41.000Z,23.75
2017-12-22T01:00:41.000Z,23.71
2017-12-22T01:10:41.000Z,23.7
2017-12-22T01:20:41.000Z,23.69
2017-12-22T01:30:41.000Z,23.62
2017-12-22T01:40:41.000Z,23.55
2017-12-22T01:50:41.000Z,23.57
2017-12-22T02:00:41.000Z,23.53
2017-12-22T02:10:41.000Z,23.5
2017-12-22T02:20:41.000Z,23.42
2017-12-22T02:30:41.000Z,23.45
2017-12-22T02:40:41.000Z,23.35
2017-12-22T02:50:41.000Z,23.37
2017-12-22T03:00:41.000Z,23.3
2017-12-22T03:10:41.000Z,23.23
2017-12-22T03:20:41.000Z,23.2
2017-12-22T03:30:41.000Z,23.17
2017-12-22T03:40:41.000Z,23.18
2017-12-22T03:50:41.000Z,23.15
2017-12-22T04:00:41.000Z,23.12
2017-12-22T04:10:41.000Z,23.08
2017-12-22T04:20:41.000Z,23.01
2017-12-22T04:30:41.000Z,23
2017-12-22T04:40:41.000Z,22.97
2017-12-22T04:50:41.000Z,22.91
2017-12-22T05:00:41.000Z,22.81
2017-12-22T05:10:41.000Z,22.8
2017-12-22T05:20:41.000Z,22.76
2017-12-22T05:30:41.000Z,22.76
2017-12-22T05:40:41.000Z,22.83
2017-12-22T05:50:41.000Z,22.76
2017-12-22T06:00:41.000Z,22.78
2017-12-22T06:10:41.000Z,22.75
2017-12-22T06:20:41.000Z,22.79
2017-12-22T06:30:41.000Z,22.77
2017-12-22T06:40:41.000Z,22.77
2017-12-22T06:50:41.000Z,22.75
2017-12-22T07:00:41.000Z,22.76
2017-12-22T07:10:41.000Z,22.81
2017-12-22T07:20:41.000Z,22.85
2017-12-22T07:30:41.000Z,22.85
2017-12-22T07:40:41.000Z,22.85
2017-12-22T07:50:41.000Z,22.92
2017-12-22T08:00:41.000Z,22.95
2017-12-22T08:10:41.000Z,22.96
2017-12-22T08:20:41.000Z,22.97
2017-12-22T08:30:42.000Z,22.98
2017-12-22T08:40:42.000Z,23.02
2017-12-22T08:50:42.000Z,23.08
2017-12-22T09:00:42.000Z,23.11
2017-12-22T09:10:42.000Z,23.13
2017-12-22T09:20:42.000Z,23.11
2017-12-22T09:30:42.000Z,23.29
2017-12-22T09:40:42.000Z,23.29
2017-12-22T09:50:42.000Z,23.24
2017-12-22T10:00:42.000Z,23.46
2017-12-22T10:10:42.000Z,20.85
2017-12-22T10:30:42.000Z,23.45
2017-12-22T10:40:42.000Z,23.57
2017-12-22T10:50:42.000Z,23.58
2017-12-22T11:00:42.000Z,23.68
2017-12-22T11:10:42.000Z,23.71
2017-12-22T11:20:42.000Z,23.76
2017-12-22T11:30:42.000Z,23.78
2017-12-22T11:40:42.000Z,23.86
2017-12-22T11:50:42.000Z,23.9
2017-12-22T12:00:42.000Z,23.89
2017-12-22T12:10:42.000Z,23.92
2017-12-22T12:20:42.000Z,23.93
2017-12-22T12:30:42.000Z,24.03
2017-12-22T12:40:42.000Z,23.95
2017-12-22T12:50:42.000Z,23.86
2017-12-22T13:00:42.000Z,23.76
2017-12-22T13:10:42.000Z,23.78
2017-12-22T13:20:42.000Z,23.82
2017-12-22T13:30:42.000Z,24.02
2017-12-22T13:40:42.000Z,23.93
2017-12-22T13:50:43.000Z,24.28
2017-12-22T14:00:42.000Z,24.23
2017-12-22T14:10:42.000Z,24.23
2017-12-22T14:20:42.000Z,24.22
2017-12-22T14:30:42.000Z,24.19
2017-12-22T14:40:42.000Z,24.3
2017-12-22T14:50:42.000Z,24.1
2017-12-22T15:00:42.000Z,24.07
2017-12-22T15:10:42.000Z,24.08
2017-12-22T15:20:42.000Z,24.01
2017-12-22T15:30:42.000Z,24.11
2017-12-22T15:40:42.000Z,24.07
2017-12-22T15:50:42.000Z,23.99
2017-12-22T16:00:42.000Z,24.04
2017-12-22T16:10:43.000Z,24.02
2017-12-22T16:20:42.000Z,24.04
2017-12-22T16:30:42.000Z,24.03
2017-12-22T16:40:42.000Z,24.02
2017-12-22T16:50:43.000Z,23.98
2017-12-22T17:00:43.000Z,23.96
2017-12-22T17:10:43.000Z,23.96
2017-12-22T17:20:43.000Z,23.93
2017-12-22T17:30:43.000Z,23.9
2017-12-22T17:40:43.000Z,23.96
2017-12-22T17:50:43.000Z,23.93
2017-12-22T18:00:43.000Z,23.96
2017-12-22T18:10:43.000Z,23.99
2017-12-22T18:20:43.000Z,24.04
2017-12-22T18:30:43.000Z,24.15
2017-12-22T18:40:43.000Z,24.12
2017-12-22T18:50:44.000Z,24.11
2017-12-22T19:00:43.000Z,24.17
2017-12-22T19:10:43.000Z,24.2
2017-12-22T19:20:43.000Z,24.22
2017-12-22T19:30:43.000Z,24.29
2017-12-22T19:40:43.000Z,24.28
2017-12-22T19:50:43.000Z,24.32
2017-12-22T20:00:43.000Z,24.44
2017-12-22T20:10:43.000Z,24.46
2017-12-22T20:20:43.000Z,24.42
2017-12-22T20:30:43.000Z,24.47
2017-12-22T20:40:43.000Z,24.44
2017-12-22T20:50:43.000Z,24.37
2017-12-22T21:00:43.000Z,24.33
2017-12-22T21:10:43.000Z,24.29
2017-12-22T21:20:43.000Z,24.21
2017-12-22T21:30:43.000Z,24.15
2017-12-22T21:40:43.000Z,24.3
2017-12-22T21:50:43.000Z,24.18
2017-12-22T22:00:43.000Z,24.19
2017-12-22T22:10:43.000Z,24.13
2017-12-22T22:20:43.000Z,24.13
2017-12-22T22:30:43.000Z,24.04
2017-12-22T22:40:43.000Z,24.13
2017-12-22T22:50:43.000Z,23.9
2017-12-22T23:00:43.000Z,23.91
2017-12-22T23:10:43.000Z,23.74
2017-12-22T23:20:43.000Z,23.65
2017-12-22T23:30:43.000Z,23.68
2017-12-22T23:40:43.000Z,23.71
2017-12-22T23:50:43.000Z,23.6
